Finita R — E.C.O.E — position and weather

sailwx.info

Track history (hours):
 
Tides and Currents Weather Stations Pressure Air Temp Water Temp Dewpoint Dewpoint Depression Visibility Wind Speed Wind Dir Waves Ship Positions

Finita R

Last reported at 2017-Sep-20 15:39 UTC. Time now 2017-Sep-22 19:12 UTC.
Position N 41°05' E 001°15'.

Length 100 m; draft 4.5 m.

Type: Cargo ship. MMSI: 225388000.

Date/timePositionNaut miles runAvg speedWind from/ knotsBaromVisibWave heightAir tempDewpointWater temp
2017-Sep-20 15:39N 41°05' E 001°15'0 1.1
2017-Sep-20 15:25N 41°06' E 001°15'6 0.2
2017-Sep-19 15:39N 41°01' E 001°20'1110.2
2017-Sep-19 14:35N 40°56' E 001°33'112.1
2017-Sep-19 14:30N 40°56' E 001°34'611.9
2017-Sep-19 14:00N 40°53' E 001°41'612.0
2017-Sep-19 13:30N 40°50' E 001°48'611.9
2017-Sep-19 13:00N 40°48' E 001°55'5 9.7
2017-Sep-19 12:30N 40°45' E 002°01'0 0.2
2017-Sep-19 12:00N 40°45' E 002°01'0 0.1
2017-Sep-19 11:30N 40°45' E 002°01'0 0.1
2017-Sep-19 11:00N 40°45' E 002°01'0 0.2
2017-Sep-19 10:30N 40°45' E 002°01'0 0.3
2017-Sep-19 10:00N 40°45' E 002°00'0 0.4
2017-Sep-19 09:30N 40°46' E 002°00'0 0.6
2017-Sep-19 09:00N 40°46' E 002°00'0 0.9
2017-Sep-19 08:30N 40°46' E 001°60'1 1.1
2017-Sep-19 08:00N 40°47' E 001°59'1 1.2
2017-Sep-19 07:30N 40°47' E 001°59'1 1.0
2017-Sep-19 07:00N 40°47' E 001°58'1 1.2
2017-Sep-19 06:30N 40°48' E 001°57'1 1.4
2017-Sep-19 06:00N 40°48' E 001°57'1 1.5
2017-Sep-19 05:30N 40°48' E 001°56'1 1.6
2017-Sep-19 05:00N 40°48' E 001°55'1 1.6
2017-Sep-19 04:30N 40°48' E 001°54'1 1.6
2017-Sep-19 04:00N 40°48' E 001°53'1 1.4
2017-Sep-19 03:30N 40°48' E 001°52'1 1.2
2017-Sep-19 03:00N 40°49' E 001°51'1 1.1
2017-Sep-19 02:30N 40°49' E 001°51'0 0.3
2017-Sep-19 02:00N 40°49' E 001°50'0 0.9
2017-Sep-19 01:30N 40°49' E 001°51'0 0.9
2017-Sep-19 01:00N 40°48' E 001°51'0 0.8
2017-Sep-19 00:30N 40°48' E 001°52'0 0.7
2017-Sep-19 00:00N 40°48' E 001°52'0 0.8
2017-Sep-18 23:30N 40°48' E 001°52'0 0.7
2017-Sep-18 23:00N 40°48' E 001°53'0 0.8
2017-Sep-18 22:30N 40°48' E 001°53'1 1.0
2017-Sep-18 22:00N 40°48' E 001°54'510.4
2017-Sep-18 21:30N 40°51' E 001°59'611.4
2017-Sep-18 21:00N 40°55' E 002°05'3 5.3
2017-Sep-18 20:30N 40°56' E 002°08'1 2.0
2017-Sep-18 20:00N 40°55' E 002°09'1 2.0
2017-Sep-18 19:30N 40°55' E 002°10'1 1.9
2017-Sep-18 19:00N 40°54' E 002°11'1 1.9
2017-Sep-18 18:30N 40°54' E 002°13'1 1.9
2017-Sep-18 18:00N 40°53' E 002°14'1 1.9
2017-Sep-18 17:30N 40°53' E 002°15'1 1.9
2017-Sep-18 17:00N 40°53' E 002°16'1 1.9
2017-Sep-18 16:30N 40°53' E 002°17'1 1.8
2017-Sep-18 16:00N 40°53' E 002°19'1 1.8
2017-Sep-18 15:30N 40°53' E 002°20'1 1.9
2017-Sep-18 15:00N 40°53' E 002°21'1 2.0
2017-Sep-18 14:30N 40°53' E 002°22'1 2.0
2017-Sep-18 14:00N 40°53' E 002°24'1 2.1
2017-Sep-18 13:30N 40°53' E 002°25'1 2.1
2017-Sep-18 13:00N 40°53' E 002°27'1 2.0
2017-Sep-18 12:30N 40°53' E 002°28'1 1.9
2017-Sep-18 12:00N 40°53' E 002°29'1 1.8
2017-Sep-18 11:30N 40°53' E 002°30'1 1.5
2017-Sep-18 11:00N 40°53' E 002°31'3 6.1
2017-Sep-18 10:30N 40°53' E 002°35'5 9.3
2017-Sep-18 10:00N 40°53' E 002°41'611.3
2017-Sep-18 09:30N 40°54' E 002°49'611.4
2017-Sep-18 09:00N 40°54' E 002°56'611.1
2017-Sep-18 08:30N 40°55' E 003°04'48810.9
2017-Sep-16 11:47N 40°38' E 013°48'312.0
2017-Sep-16 11:30N 40°38' E 013°53'612.1
2017-Sep-16 11:00N 40°38' E 014°01'611.6
2017-Sep-16 10:30N 40°40' E 014°08'611.3
2017-Sep-16 10:00N 40°44' E 014°14'610.6
2017-Sep-16 09:29N 40°49' E 014°17'2 2.5
2017-Sep-16 08:44N 40°50' E 014°17'0 0.0
2017-Sep-16 08:26N 40°50' E 014°17'0 0.0
2017-Sep-16 07:59N 40°50' E 014°17'0 0.0
2017-Sep-16 07:29N 40°50' E 014°17'0 0.0
2017-Sep-16 06:59N 40°50' E 014°17'0 0.0
2017-Sep-16 06:29N 40°50' E 014°17'0 0.0
2017-Sep-16 05:53N 40°50' E 014°17'0 0.0
2017-Sep-16 05:25N 40°50' E 014°17'0 0.0
2017-Sep-16 04:58N 40°50' E 014°17'0 0.0
2017-Sep-16 04:25N 40°50' E 014°17'0 0.0
2017-Sep-16 03:37N 40°50' E 014°17'0 0.0
2017-Sep-16 03:25N 40°50' E 014°17'0 0.0
2017-Sep-16 02:58N 40°50' E 014°17'0 0.0
2017-Sep-16 02:28N 40°50' E 014°17'0 0.0
2017-Sep-16 01:52N 40°50' E 014°17'0 0.0
2017-Sep-16 01:28N 40°50' E 014°17'0 0.0
2017-Sep-16 00:59N 40°50' E 014°17'0 0.0
2017-Sep-15 23:52N 40°50' E 014°17'0 0.0
2017-Sep-15 23:28N 40°50' E 014°17'0 0.0
2017-Sep-15 22:52N 40°50' E 014°17'0 0.0
2017-Sep-15 22:29N 40°50' E 014°17'0 0.0
2017-Sep-15 21:58N 40°50' E 014°17'0 0.0
2017-Sep-15 21:28N 40°50' E 014°17'0 0.0
2017-Sep-15 20:58N 40°50' E 014°17'0 0.0
2017-Sep-15 20:28N 40°50' E 014°17'0 0.0
2017-Sep-15 19:52N 40°50' E 014°17'0 0.0
2017-Sep-15 19:28N 40°50' E 014°17'0 0.0
2017-Sep-15 18:58N 40°50' E 014°17'0 0.0
2017-Sep-15 12:22N 40°50' E 014°17'239 6.9
2017-Sep-14 01:56N 38°59' E 009°41'610.3
2017-Sep-14 01:21N 38°56' E 009°34'410.1
2017-Sep-14 01:00N 38°55' E 009°30'510.1
2017-Sep-14 00:29N 38°54' E 009°23'510.8
2017-Sep-14 00:00N 38°52' E 009°17'510.4
2017-Sep-13 23:30N 38°51' E 009°10'510.2
2017-Sep-13 22:59N 38°49' E 009°04'6 9.9
2017-Sep-13 22:21N 38°48' E 008°56'4 9.9
2017-Sep-13 21:59N 38°47' E 008°51'510.3
2017-Sep-13 21:29N 38°46' E 008°45'38210.5
2017-Sep-12 09:14N 37°04' E 000°59'2110.9
2017-Sep-12 07:16N 36°58' E 000°33'311.1
2017-Sep-12 07:00N 36°57' E 000°29'611.0
2017-Sep-12 06:30N 36°56' E 000°23'510.1
2017-Sep-12 06:00N 36°54' E 000°17'611.2
2017-Sep-12 05:30N 36°53' E 000°10'611.1
2017-Sep-12 05:00N 36°51' E 000°03'611.1
2017-Sep-12 04:30N 36°50' W 000°03'611.2
2017-Sep-12 04:00N 36°48' W 000°10'611.3
2017-Sep-12 03:30N 36°47' W 000°17'611.3
2017-Sep-12 03:00N 36°45' W 000°24'611.2
2017-Sep-12 02:30N 36°43' W 000°30'510.6
2017-Sep-12 02:00N 36°42' W 000°37'611.0
2017-Sep-12 01:30N 36°41' W 000°43'510.8
2017-Sep-12 01:00N 36°40' W 000°50'510.7
2017-Sep-12 00:30N 36°38' W 000°56'2011.2
2017-Sep-11 22:43N 36°33' W 001°20'2512.0
2017-Sep-11 20:36N 36°26' W 001°51'112.2
2017-Sep-11 20:29N 36°26' W 001°52'16012.0
2017-Sep-11 07:09N 35°56' W 005°07'212.3
2017-Sep-11 06:57N 35°56' W 005°10'512.2
2017-Sep-11 06:30N 35°56' W 005°17'3 5.3
2017-Sep-11 06:00N 35°54' W 005°19'0 0.0
2017-Sep-11 05:30N 35°54' W 005°19'0 0.0
2017-Sep-11 04:57N 35°54' W 005°19'0 0.0
2017-Sep-11 04:27N 35°54' W 005°19'0 0.0
2017-Sep-11 04:00N 35°54' W 005°19'0 0.0
2017-Sep-11 03:30N 35°54' W 005°19'0 0.0
2017-Sep-11 03:00N 35°54' W 005°19'0 0.0
2017-Sep-11 02:30N 35°54' W 005°19'0 0.0
2017-Sep-11 02:00N 35°54' W 005°19'0 0.0
2017-Sep-11 01:30N 35°54' W 005°19'0 1.0
2017-Sep-11 01:00N 35°54' W 005°19'2 3.8
2017-Sep-11 00:31N 35°56' W 005°20'713.1
2017-Sep-11 00:00N 35°57' W 005°28'  
Track history (hours):
 
Tides and Currents Weather Stations Pressure Air Temp Water Temp Dewpoint Dewpoint Depression Visibility Wind Speed Wind Dir Waves Ship Positions

Finita R

Last reported at 2017-Sep-20 15:39 UTC. Time now 2017-Sep-22 19:12 UTC.
Position N 41°05' E 001°15'.

Length 100 m; draft 4.5 m.

Type: Cargo ship. MMSI: 225388000.

Date/timePositionNaut miles runAvg speedWind from/ knotsBaromVisibWave heightAir tempDewpointWater temp
2017-Sep-20 15:39N 41°05' E 001°15'0 1.1
2017-Sep-20 15:25N 41°06' E 001°15'6 0.2
2017-Sep-19 15:39N 41°01' E 001°20'1110.2
2017-Sep-19 14:35N 40°56' E 001°33'112.1
2017-Sep-19 14:30N 40°56' E 001°34'611.9
2017-Sep-19 14:00N 40°53' E 001°41'612.0
2017-Sep-19 13:30N 40°50' E 001°48'611.9
2017-Sep-19 13:00N 40°48' E 001°55'5 9.7
2017-Sep-19 12:30N 40°45' E 002°01'0 0.2
2017-Sep-19 12:00N 40°45' E 002°01'0 0.1
2017-Sep-19 11:30N 40°45' E 002°01'0 0.1
2017-Sep-19 11:00N 40°45' E 002°01'0 0.2
2017-Sep-19 10:30N 40°45' E 002°01'0 0.3
2017-Sep-19 10:00N 40°45' E 002°00'0 0.4
2017-Sep-19 09:30N 40°46' E 002°00'0 0.6
2017-Sep-19 09:00N 40°46' E 002°00'0 0.9
2017-Sep-19 08:30N 40°46' E 001°60'1 1.1
2017-Sep-19 08:00N 40°47' E 001°59'1 1.2
2017-Sep-19 07:30N 40°47' E 001°59'1 1.0
2017-Sep-19 07:00N 40°47' E 001°58'1 1.2
2017-Sep-19 06:30N 40°48' E 001°57'1 1.4
2017-Sep-19 06:00N 40°48' E 001°57'1 1.5
2017-Sep-19 05:30N 40°48' E 001°56'1 1.6
2017-Sep-19 05:00N 40°48' E 001°55'1 1.6
2017-Sep-19 04:30N 40°48' E 001°54'1 1.6
2017-Sep-19 04:00N 40°48' E 001°53'1 1.4
2017-Sep-19 03:30N 40°48' E 001°52'1 1.2
2017-Sep-19 03:00N 40°49' E 001°51'1 1.1
2017-Sep-19 02:30N 40°49' E 001°51'0 0.3
2017-Sep-19 02:00N 40°49' E 001°50'0 0.9
2017-Sep-19 01:30N 40°49' E 001°51'0 0.9
2017-Sep-19 01:00N 40°48' E 001°51'0 0.8
2017-Sep-19 00:30N 40°48' E 001°52'0 0.7
2017-Sep-19 00:00N 40°48' E 001°52'0 0.8
2017-Sep-18 23:30N 40°48' E 001°52'0 0.7
2017-Sep-18 23:00N 40°48' E 001°53'0 0.8
2017-Sep-18 22:30N 40°48' E 001°53'1 1.0
2017-Sep-18 22:00N 40°48' E 001°54'510.4
2017-Sep-18 21:30N 40°51' E 001°59'611.4
2017-Sep-18 21:00N 40°55' E 002°05'3 5.3
2017-Sep-18 20:30N 40°56' E 002°08'1 2.0
2017-Sep-18 20:00N 40°55' E 002°09'1 2.0
2017-Sep-18 19:30N 40°55' E 002°10'1 1.9
2017-Sep-18 19:00N 40°54' E 002°11'1 1.9
2017-Sep-18 18:30N 40°54' E 002°13'1 1.9
2017-Sep-18 18:00N 40°53' E 002°14'1 1.9
2017-Sep-18 17:30N 40°53' E 002°15'1 1.9
2017-Sep-18 17:00N 40°53' E 002°16'1 1.9
2017-Sep-18 16:30N 40°53' E 002°17'1 1.8
2017-Sep-18 16:00N 40°53' E 002°19'1 1.8
2017-Sep-18 15:30N 40°53' E 002°20'1 1.9
2017-Sep-18 15:00N 40°53' E 002°21'1 2.0
2017-Sep-18 14:30N 40°53' E 002°22'1 2.0
2017-Sep-18 14:00N 40°53' E 002°24'1 2.1
2017-Sep-18 13:30N 40°53' E 002°25'1 2.1
2017-Sep-18 13:00N 40°53' E 002°27'1 2.0
2017-Sep-18 12:30N 40°53' E 002°28'1 1.9
2017-Sep-18 12:00N 40°53' E 002°29'1 1.8
2017-Sep-18 11:30N 40°53' E 002°30'1 1.5
2017-Sep-18 11:00N 40°53' E 002°31'3 6.1
2017-Sep-18 10:30N 40°53' E 002°35'5 9.3
2017-Sep-18 10:00N 40°53' E 002°41'611.3
2017-Sep-18 09:30N 40°54' E 002°49'611.4
2017-Sep-18 09:00N 40°54' E 002°56'611.1
2017-Sep-18 08:30N 40°55' E 003°04'48810.9
2017-Sep-16 11:47N 40°38' E 013°48'312.0
2017-Sep-16 11:30N 40°38' E 013°53'612.1
2017-Sep-16 11:00N 40°38' E 014°01'611.6
2017-Sep-16 10:30N 40°40' E 014°08'611.3
2017-Sep-16 10:00N 40°44' E 014°14'610.6
2017-Sep-16 09:29N 40°49' E 014°17'2 2.5
2017-Sep-16 08:44N 40°50' E 014°17'0 0.0
2017-Sep-16 08:26N 40°50' E 014°17'0 0.0
2017-Sep-16 07:59N 40°50' E 014°17'0 0.0
2017-Sep-16 07:29N 40°50' E 014°17'0 0.0
2017-Sep-16 06:59N 40°50' E 014°17'0 0.0
2017-Sep-16 06:29N 40°50' E 014°17'0 0.0
2017-Sep-16 05:53N 40°50' E 014°17'0 0.0
2017-Sep-16 05:25N 40°50' E 014°17'0 0.0
2017-Sep-16 04:58N 40°50' E 014°17'0 0.0
2017-Sep-16 04:25N 40°50' E 014°17'0 0.0
2017-Sep-16 03:37N 40°50' E 014°17'0 0.0
2017-Sep-16 03:25N 40°50' E 014°17'0 0.0
2017-Sep-16 02:58N 40°50' E 014°17'0 0.0
2017-Sep-16 02:28N 40°50' E 014°17'0 0.0
2017-Sep-16 01:52N 40°50' E 014°17'0 0.0
2017-Sep-16 01:28N 40°50' E 014°17'0 0.0
2017-Sep-16 00:59N 40°50' E 014°17'0 0.0
2017-Sep-15 23:52N 40°50' E 014°17'0 0.0
2017-Sep-15 23:28N 40°50' E 014°17'0 0.0
2017-Sep-15 22:52N 40°50' E 014°17'0 0.0
2017-Sep-15 22:29N 40°50' E 014°17'0 0.0
2017-Sep-15 21:58N 40°50' E 014°17'0 0.0
2017-Sep-15 21:28N 40°50' E 014°17'0 0.0
2017-Sep-15 20:58N 40°50' E 014°17'0 0.0
2017-Sep-15 20:28N 40°50' E 014°17'0 0.0
2017-Sep-15 19:52N 40°50' E 014°17'0 0.0
2017-Sep-15 19:28N 40°50' E 014°17'0 0.0
2017-Sep-15 18:58N 40°50' E 014°17'0 0.0
2017-Sep-15 12:22N 40°50' E 014°17'239 6.9
2017-Sep-14 01:56N 38°59' E 009°41'610.3
2017-Sep-14 01:21N 38°56' E 009°34'410.1
2017-Sep-14 01:00N 38°55' E 009°30'510.1
2017-Sep-14 00:29N 38°54' E 009°23'510.8
2017-Sep-14 00:00N 38°52' E 009°17'510.4
2017-Sep-13 23:30N 38°51' E 009°10'510.2
2017-Sep-13 22:59N 38°49' E 009°04'6 9.9
2017-Sep-13 22:21N 38°48' E 008°56'4 9.9
2017-Sep-13 21:59N 38°47' E 008°51'510.3
2017-Sep-13 21:29N 38°46' E 008°45'38210.5
2017-Sep-12 09:14N 37°04' E 000°59'2110.9
2017-Sep-12 07:16N 36°58' E 000°33'311.1
2017-Sep-12 07:00N 36°57' E 000°29'611.0
2017-Sep-12 06:30N 36°56' E 000°23'510.1
2017-Sep-12 06:00N 36°54' E 000°17'611.2
2017-Sep-12 05:30N 36°53' E 000°10'611.1
2017-Sep-12 05:00N 36°51' E 000°03'611.1
2017-Sep-12 04:30N 36°50' W 000°03'611.2
2017-Sep-12 04:00N 36°48' W 000°10'611.3
2017-Sep-12 03:30N 36°47' W 000°17'611.3
2017-Sep-12 03:00N 36°45' W 000°24'611.2
2017-Sep-12 02:30N 36°43' W 000°30'510.6
2017-Sep-12 02:00N 36°42' W 000°37'611.0
2017-Sep-12 01:30N 36°41' W 000°43'510.8
2017-Sep-12 01:00N 36°40' W 000°50'510.7
2017-Sep-12 00:30N 36°38' W 000°56'2011.2
2017-Sep-11 22:43N 36°33' W 001°20'2512.0
2017-Sep-11 20:36N 36°26' W 001°51'112.2
2017-Sep-11 20:29N 36°26' W 001°52'16012.0
2017-Sep-11 07:09N 35°56' W 005°07'212.3
2017-Sep-11 06:57N 35°56' W 005°10'512.2
2017-Sep-11 06:30N 35°56' W 005°17'3 5.3
2017-Sep-11 06:00N 35°54' W 005°19'0 0.0
2017-Sep-11 05:30N 35°54' W 005°19'0 0.0
2017-Sep-11 04:57N 35°54' W 005°19'0 0.0
2017-Sep-11 04:27N 35°54' W 005°19'0 0.0
2017-Sep-11 04:00N 35°54' W 005°19'0 0.0
2017-Sep-11 03:30N 35°54' W 005°19'0 0.0
2017-Sep-11 03:00N 35°54' W 005°19'0 0.0
2017-Sep-11 02:30N 35°54' W 005°19'0 0.0
2017-Sep-11 02:00N 35°54' W 005°19'0 0.0
2017-Sep-11 01:30N 35°54' W 005°19'0 1.0
2017-Sep-11 01:00N 35°54' W 005°19'2 3.8
2017-Sep-11 00:31N 35°56' W 005°20'713.1
2017-Sep-11 00:00N 35°57' W 005°28'  

Dump ship's entire track history